This is the latest recevied weather packets stored in our database for station/object kj4yre. If no packets are shown the sender has not sent any weather packets the latest 10 day(s).
| Time | Temp. | Humidity | Pressure | Rain* | Wind** | Luminosity | Snow |
|---|---|---|---|---|---|---|---|
| 1777961706 | 17.22° C | 73% | 1014.8 hPa | 0 mm | - | - | - |
| 1777960206 | 17.78° C | 71% | 1014.8 hPa | 0 mm | - | - | - |
| 1777955408 | 18.33° C | 71% | 1014.7 hPa | 0 mm | - | - | - |
| 1777949105 | 18.33° C | 59% | 1014.1 hPa | 0 mm | - | - | - |
| 1777942207 | 18.89° C | 57% | 1013.4 hPa | 0 mm | - | - | - |
| 1777941608 | 18.89° C | 56% | 1013.4 hPa | 0 mm | - | - | - |
| 1777938606 | 21.11° C | 49% | 1012.9 hPa | 0 mm | - | - | - |
| 1777932907 | 26.67° C | 30% | 1012.4 hPa | 0 mm | - | - | - |
| 1777932605 | 26.11° C | 30% | 1012.4 hPa | 0 mm | - | - | - |
| 1777932006 | 26.11° C | 31% | 1012.4 hPa | 0 mm | - | - | - |
| 1777930507 | 27.22° C | 28% | 1012.3 hPa | 0 mm | - | - | - |
| 1777926006 | 26.67° C | 30% | 1012.7 hPa | 0 mm | - | - | - |
| 1777921805 | 25.56° C | 31% | 1013.8 hPa | 0 mm | - | - | - |
| 1777917607 | 23.33° C | 36% | 1014.7 hPa | 0 mm | - | - | - |
| 1777915807 | 25° C | 31% | 1014.9 hPa | 0 mm | - | - | - |
| 1777913706 | 25° C | 31% | 1015.2 hPa | 0 mm | - | - | - |
| 1777913406 | 23.89° C | 35% | 1015.4 hPa | 0 mm | - | - | - |
| 1777908908 | 21.67° C | 39% | 1016.3 hPa | 0 mm | - | - | - |
| 1777908007 | 21.11° C | 45% | 1016.4 hPa | 0 mm | - | - | - |
| 1777907109 | 20.56° C | 46% | 1016.5 hPa | 0 mm | - | - | - |
| 1777903505 | 18.89° C | 54% | 1016.7 hPa | 0 mm | - | - | - |
| 1777902006 | 16.67° C | 59% | 1016.9 hPa | 0 mm | - | - | - |
| 1777896306 | 12.22° C | 75% | 1017.7 hPa | 0 mm | - | - | - |
| 1777884007 | 10° C | 81% | 1018.5 hPa | 0 mm | - | - | - |
| 1777876507 | 9.44° C | 83% | 1018.5 hPa | 0 mm | - | - | - |
* Rain latest hour (hover to see other rain measurements)
** Current wind speed in m/s (hover to see current wind gust speed)